sensor_id;sensor_type;location;lat;lon;timestamp;temperature;humidity
37974;DHT22;23796;51.458;7.000;2022-09-02T00:03:48;18.10;99.90
37974;DHT22;23796;51.458;7.000;2022-09-02T00:06:15;18.10;99.90
37974;DHT22;23796;51.458;7.000;2022-09-02T00:08:41;18.00;99.90
37974;DHT22;23796;51.458;7.000;2022-09-02T00:11:14;18.10;99.90
37974;DHT22;23796;51.458;7.000;2022-09-02T00:13:42;18.00;99.90
37974;DHT22;23796;51.458;7.000;2022-09-02T00:16:11;18.00;99.90
37974;DHT22;23796;51.458;7.000;2022-09-02T00:18:39;18.00;99.90
37974;DHT22;23796;51.458;7.000;2022-09-02T00:21:09;18.00;99.90
37974;DHT22;23796;51.458;7.000;2022-09-02T00:23:36;18.00;99.90
37974;DHT22;23796;51.458;7.000;2022-09-02T00:26:05;18.00;99.90
37974;DHT22;23796;51.458;7.000;2022-09-02T00:28:31;17.90;99.90
37974;DHT22;23796;51.458;7.000;2022-09-02T00:31:00;17.90;99.90
37974;DHT22;23796;51.458;7.000;2022-09-02T00:33:28;17.90;99.90
37974;DHT22;23796;51.458;7.000;2022-09-02T00:36:00;17.90;99.90
37974;DHT22;23796;51.458;7.000;2022-09-02T00:38:29;17.80;99.90
37974;DHT22;23796;51.458;7.000;2022-09-02T00:41:00;17.80;99.90
37974;DHT22;23796;51.458;7.000;2022-09-02T00:43:48;17.80;99.90
37974;DHT22;23796;51.458;7.000;2022-09-02T00:46:17;17.70;99.90
37974;DHT22;23796;51.458;7.000;2022-09-02T00:48:51;17.60;99.90
37974;DHT22;23796;51.458;7.000;2022-09-02T00:51:21;17.50;99.90
37974;DHT22;23796;51.458;7.000;2022-09-02T00:53:51;17.50;99.90
37974;DHT22;23796;51.458;7.000;2022-09-02T00:56:25;17.40;99.90
37974;DHT22;23796;51.458;7.000;2022-09-02T00:58:52;17.40;99.90
37974;DHT22;23796;51.458;7.000;2022-09-02T01:01:19;17.40;99.90
37974;DHT22;23796;51.458;7.000;2022-09-02T01:03:49;17.30;99.90
37974;DHT22;23796;51.458;7.000;2022-09-02T01:06:18;17.20;99.90
37974;DHT22;23796;51.458;7.000;2022-09-02T01:08:48;17.10;99.90
37974;DHT22;23796;51.458;7.000;2022-09-02T01:11:15;17.00;99.90
37974;DHT22;23796;51.458;7.000;2022-09-02T01:13:45;17.00;99.90
37974;DHT22;23796;51.458;7.000;2022-09-02T01:16:25;17.00;99.90
37974;DHT22;23796;51.458;7.000;2022-09-02T01:18:53;17.00;99.90
37974;DHT22;23796;51.458;7.000;2022-09-02T01:21:23;17.00;99.90
37974;DHT22;23796;51.458;7.000;2022-09-02T01:23:52;17.00;99.90
37974;DHT22;23796;51.458;7.000;2022-09-02T01:26:18;16.90;99.90
37974;DHT22;23796;51.458;7.000;2022-09-02T01:28:47;16.90;99.90
37974;DHT22;23796;51.458;7.000;2022-09-02T01:31:12;16.90;99.90
37974;DHT22;23796;51.458;7.000;2022-09-02T01:33:42;16.80;99.90
37974;DHT22;23796;51.458;7.000;2022-09-02T01:36:08;16.80;99.90
37974;DHT22;23796;51.458;7.000;2022-09-02T01:38:34;16.70;99.90
37974;DHT22;23796;51.458;7.000;2022-09-02T01:41:05;16.60;99.90
37974;DHT22;23796;51.458;7.000;2022-09-02T01:43:30;16.60;99.90
37974;DHT22;23796;51.458;7.000;2022-09-02T01:45:58;16.60;99.90
37974;DHT22;23796;51.458;7.000;2022-09-02T01:48:26;16.50;99.90
37974;DHT22;23796;51.458;7.000;2022-09-02T01:51:00;16.50;99.90
37974;DHT22;23796;51.458;7.000;2022-09-02T01:53:26;16.50;99.90
37974;DHT22;23796;51.458;7.000;2022-09-02T01:55:55;16.40;99.90
37974;DHT22;23796;51.458;7.000;2022-09-02T01:58:20;16.40;99.90
37974;DHT22;23796;51.458;7.000;2022-09-02T02:00:46;16.30;99.90
37974;DHT22;23796;51.458;7.000;2022-09-02T02:03:14;16.30;99.90
37974;DHT22;23796;51.458;7.000;2022-09-02T02:05:40;16.30;99.90
37974;DHT22;23796;51.458;7.000;2022-09-02T02:08:06;16.30;99.90
37974;DHT22;23796;51.458;7.000;2022-09-02T02:10:32;16.30;99.90
37974;DHT22;23796;51.458;7.000;2022-09-02T02:13:00;16.30;99.90
37974;DHT22;23796;51.458;7.000;2022-09-02T02:15:26;16.30;99.90
37974;DHT22;23796;51.458;7.000;2022-09-02T02:17:54;16.30;99.90
37974;DHT22;23796;51.458;7.000;2022-09-02T02:20:20;16.30;99.90
37974;DHT22;23796;51.458;7.000;2022-09-02T02:22:48;16.30;99.90
37974;DHT22;23796;51.458;7.000;2022-09-02T02:25:15;16.20;99.90
37974;DHT22;23796;51.458;7.000;2022-09-02T02:27:45;16.20;99.90
37974;DHT22;23796;51.458;7.000;2022-09-02T02:30:13;16.20;99.90
37974;DHT22;23796;51.458;7.000;2022-09-02T02:32:39;16.20;99.90
37974;DHT22;23796;51.458;7.000;2022-09-02T02:35:06;16.20;99.90
37974;DHT22;23796;51.458;7.000;2022-09-02T02:37:32;16.10;99.90
37974;DHT22;23796;51.458;7.000;2022-09-02T02:40:03;16.10;99.90
37974;DHT22;23796;51.458;7.000;2022-09-02T02:42:32;16.00;99.90
37974;DHT22;23796;51.458;7.000;2022-09-02T02:44:58;16.00;99.90
37974;DHT22;23796;51.458;7.000;2022-09-02T02:47:26;15.90;99.90
37974;DHT22;23796;51.458;7.000;2022-09-02T02:49:52;15.90;99.90
37974;DHT22;23796;51.458;7.000;2022-09-02T02:52:18;15.90;99.90
37974;DHT22;23796;51.458;7.000;2022-09-02T02:54:43;15.90;99.90
37974;DHT22;23796;51.458;7.000;2022-09-02T02:57:10;15.90;99.90
37974;DHT22;23796;51.458;7.000;2022-09-02T02:59:36;16.00;99.90
37974;DHT22;23796;51.458;7.000;2022-09-02T03:02:05;16.00;99.90
37974;DHT22;23796;51.458;7.000;2022-09-02T03:04:31;16.10;99.90
37974;DHT22;23796;51.458;7.000;2022-09-02T03:06:59;16.10;99.90
37974;DHT22;23796;51.458;7.000;2022-09-02T03:09:29;16.10;99.90
37974;DHT22;23796;51.458;7.000;2022-09-02T03:15:19;16.10;99.90
37974;DHT22;23796;51.458;7.000;2022-09-02T03:17:46;16.00;99.90
37974;DHT22;23796;51.458;7.000;2022-09-02T03:20:13;16.00;99.90
37974;DHT22;23796;51.458;7.000;2022-09-02T03:22:43;16.00;99.90
37974;DHT22;23796;51.458;7.000;2022-09-02T03:25:13;16.10;99.90
37974;DHT22;23796;51.458;7.000;2022-09-02T03:27:40;16.00;99.90
37974;DHT22;23796;51.458;7.000;2022-09-02T03:30:09;16.00;99.90
37974;DHT22;23796;51.458;7.000;2022-09-02T03:32:35;16.00;99.90
37974;DHT22;23796;51.458;7.000;2022-09-02T03:35:02;16.00;99.90
37974;DHT22;23796;51.458;7.000;2022-09-02T03:37:30;15.90;99.90
37974;DHT22;23796;51.458;7.000;2022-09-02T03:39:55;16.00;99.90
37974;DHT22;23796;51.458;7.000;2022-09-02T03:42:23;16.00;99.90
37974;DHT22;23796;51.458;7.000;2022-09-02T03:44:49;16.00;99.90
37974;DHT22;23796;51.458;7.000;2022-09-02T03:47:17;15.90;99.90
37974;DHT22;23796;51.458;7.000;2022-09-02T03:49:49;15.90;99.90
37974;DHT22;23796;51.458;7.000;2022-09-02T03:52:15;16.00;99.90
37974;DHT22;23796;51.458;7.000;2022-09-02T03:54:44;16.10;99.90
37974;DHT22;23796;51.458;7.000;2022-09-02T03:57:10;16.20;99.90
37974;DHT22;23796;51.458;7.000;2022-09-02T03:59:35;16.30;99.90
37974;DHT22;23796;51.458;7.000;2022-09-02T04:02:01;16.30;99.90
37974;DHT22;23796;51.458;7.000;2022-09-02T04:04:28;16.30;99.90
37974;DHT22;23796;51.458;7.000;2022-09-02T04:06:56;16.30;99.90
37974;DHT22;23796;51.458;7.000;2022-09-02T04:09:22;16.30;99.90
37974;DHT22;23796;51.458;7.000;2022-09-02T04:11:50;16.20;99.90
37974;DHT22;23796;51.458;7.000;2022-09-02T04:14:16;16.20;99.90
37974;DHT22;23796;51.458;7.000;2022-09-02T04:23:12;16.00;99.90
37974;DHT22;23796;51.458;7.000;2022-09-02T04:25:39;15.90;99.90
37974;DHT22;23796;51.458;7.000;2022-09-02T04:28:06;15.80;99.90
37974;DHT22;23796;51.458;7.000;2022-09-02T04:30:36;15.70;99.90
37974;DHT22;23796;51.458;7.000;2022-09-02T04:33:02;15.70;99.90
37974;DHT22;23796;51.458;7.000;2022-09-02T04:35:32;15.60;99.90
37974;DHT22;23796;51.458;7.000;2022-09-02T04:38:00;15.60;99.90
37974;DHT22;23796;51.458;7.000;2022-09-02T04:40:26;15.50;99.90
37974;DHT22;23796;51.458;7.000;2022-09-02T04:42:54;15.50;99.90
37974;DHT22;23796;51.458;7.000;2022-09-02T04:45:22;15.60;99.90
37974;DHT22;23796;51.458;7.000;2022-09-02T04:47:52;15.70;99.90
37974;DHT22;23796;51.458;7.000;2022-09-02T04:50:20;15.70;99.90
37974;DHT22;23796;51.458;7.000;2022-09-02T04:52:46;15.70;99.90
37974;DHT22;23796;51.458;7.000;2022-09-02T04:55:12;15.60;99.90
37974;DHT22;23796;51.458;7.000;2022-09-02T04:57:37;15.50;99.90
37974;DHT22;23796;51.458;7.000;2022-09-02T05:00:10;15.40;99.90
37974;DHT22;23796;51.458;7.000;2022-09-02T05:02:42;15.40;99.90
37974;DHT22;23796;51.458;7.000;2022-09-02T05:05:10;15.40;99.90
37974;DHT22;23796;51.458;7.000;2022-09-02T05:07:37;15.50;99.90
37974;DHT22;23796;51.458;7.000;2022-09-02T05:10:04;15.60;99.90
37974;DHT22;23796;51.458;7.000;2022-09-02T05:12:31;15.60;99.90
37974;DHT22;23796;51.458;7.000;2022-09-02T05:14:59;15.70;99.90
37974;DHT22;23796;51.458;7.000;2022-09-02T05:17:26;15.70;99.90
37974;DHT22;23796;51.458;7.000;2022-09-02T05:19:54;15.70;99.90
37974;DHT22;23796;51.458;7.000;2022-09-02T05:22:20;15.70;99.90
37974;DHT22;23796;51.458;7.000;2022-09-02T05:24:49;15.80;99.90
37974;DHT22;23796;51.458;7.000;2022-09-02T05:27:15;15.80;99.90
37974;DHT22;23796;51.458;7.000;2022-09-02T05:29:41;15.70;99.90
37974;DHT22;23796;51.458;7.000;2022-09-02T05:32:10;15.70;99.90
37974;DHT22;23796;51.458;7.000;2022-09-02T05:34:36;15.70;99.90
37974;DHT22;23796;51.458;7.000;2022-09-02T05:37:04;15.90;99.90
37974;DHT22;23796;51.458;7.000;2022-09-02T05:39:30;15.90;99.90
37974;DHT22;23796;51.458;7.000;2022-09-02T05:41:56;16.00;99.90
37974;DHT22;23796;51.458;7.000;2022-09-02T05:44:24;16.00;99.90
37974;DHT22;23796;51.458;7.000;2022-09-02T05:46:52;15.90;99.90
37974;DHT22;23796;51.458;7.000;2022-09-02T05:49:18;15.90;99.90
37974;DHT22;23796;51.458;7.000;2022-09-02T05:51:52;15.90;99.90
37974;DHT22;23796;51.458;7.000;2022-09-02T05:54:26;15.80;99.90
37974;DHT22;23796;51.458;7.000;2022-09-02T05:56:55;15.70;99.90
37974;DHT22;23796;51.458;7.000;2022-09-02T05:59:22;15.60;99.90
37974;DHT22;23796;51.458;7.000;2022-09-02T06:01:48;15.70;99.90
37974;DHT22;23796;51.458;7.000;2022-09-02T06:04:14;15.70;99.90
37974;DHT22;23796;51.458;7.000;2022-09-02T06:06:40;15.60;99.90
37974;DHT22;23796;51.458;7.000;2022-09-02T06:09:09;15.70;99.90
37974;DHT22;23796;51.458;7.000;2022-09-02T06:11:36;15.80;99.90
37974;DHT22;23796;51.458;7.000;2022-09-02T06:14:06;16.00;99.90
37974;DHT22;23796;51.458;7.000;2022-09-02T06:16:37;15.90;99.90
37974;DHT22;23796;51.458;7.000;2022-09-02T06:19:03;15.90;99.90
37974;DHT22;23796;51.458;7.000;2022-09-02T06:21:32;16.10;99.90
37974;DHT22;23796;51.458;7.000;2022-09-02T06:23:58;16.10;99.90
37974;DHT22;23796;51.458;7.000;2022-09-02T06:26:24;16.20;99.90
37974;DHT22;23796;51.458;7.000;2022-09-02T06:28:52;16.20;99.90
37974;DHT22;23796;51.458;7.000;2022-09-02T06:31:22;16.30;99.90
37974;DHT22;23796;51.458;7.000;2022-09-02T06:33:52;16.40;99.90
37974;DHT22;23796;51.458;7.000;2022-09-02T06:36:21;16.50;99.90
37974;DHT22;23796;51.458;7.000;2022-09-02T06:38:52;16.70;99.90
37974;DHT22;23796;51.458;7.000;2022-09-02T06:41:22;16.90;99.90
37974;DHT22;23796;51.458;7.000;2022-09-02T06:43:49;16.90;99.90
37974;DHT22;23796;51.458;7.000;2022-09-02T06:46:21;17.20;99.90
37974;DHT22;23796;51.458;7.000;2022-09-02T06:48:47;17.20;99.90
37974;DHT22;23796;51.458;7.000;2022-09-02T06:51:24;17.20;99.90
37974;DHT22;23796;51.458;7.000;2022-09-02T06:53:50;17.20;99.90
37974;DHT22;23796;51.458;7.000;2022-09-02T06:56:16;17.30;99.90
37974;DHT22;23796;51.458;7.000;2022-09-02T06:58:44;17.40;99.90
37974;DHT22;23796;51.458;7.000;2022-09-02T07:01:25;17.50;99.90
37974;DHT22;23796;51.458;7.000;2022-09-02T07:03:51;17.30;99.90
37974;DHT22;23796;51.458;7.000;2022-09-02T07:06:38;17.10;99.90
37974;DHT22;23796;51.458;7.000;2022-09-02T07:09:05;17.10;99.90
37974;DHT22;23796;51.458;7.000;2022-09-02T07:11:32;17.20;99.90
37974;DHT22;23796;51.458;7.000;2022-09-02T07:14:00;17.40;99.90
37974;DHT22;23796;51.458;7.000;2022-09-02T07:16:31;17.60;99.90
37974;DHT22;23796;51.458;7.000;2022-09-02T07:18:57;17.80;99.90
37974;DHT22;23796;51.458;7.000;2022-09-02T07:21:28;17.70;99.90
37974;DHT22;23796;51.458;7.000;2022-09-02T07:23:56;17.70;99.90
37974;DHT22;23796;51.458;7.000;2022-09-02T07:26:23;17.90;99.90
37974;DHT22;23796;51.458;7.000;2022-09-02T07:28:48;18.00;99.90
37974;DHT22;23796;51.458;7.000;2022-09-02T07:31:17;18.00;99.90
37974;DHT22;23796;51.458;7.000;2022-09-02T07:33:46;18.10;99.90
37974;DHT22;23796;51.458;7.000;2022-09-02T07:36:16;18.10;99.90
37974;DHT22;23796;51.458;7.000;2022-09-02T07:38:46;18.10;99.90
37974;DHT22;23796;51.458;7.000;2022-09-02T07:41:12;18.00;99.90
37974;DHT22;23796;51.458;7.000;2022-09-02T07:43:38;18.00;99.90
37974;DHT22;23796;51.458;7.000;2022-09-02T07:46:06;18.20;99.90
37974;DHT22;23796;51.458;7.000;2022-09-02T07:48:33;18.30;99.90
37974;DHT22;23796;51.458;7.000;2022-09-02T07:51:02;18.60;99.90
37974;DHT22;23796;51.458;7.000;2022-09-02T07:53:28;18.70;99.90
37974;DHT22;23796;51.458;7.000;2022-09-02T07:55:53;19.00;99.90
37974;DHT22;23796;51.458;7.000;2022-09-02T07:58:20;19.20;99.90
37974;DHT22;23796;51.458;7.000;2022-09-02T08:00:49;19.00;99.90
37974;DHT22;23796;51.458;7.000;2022-09-02T08:03:15;18.90;99.90
37974;DHT22;23796;51.458;7.000;2022-09-02T08:05:42;18.70;99.90
37974;DHT22;23796;51.458;7.000;2022-09-02T08:08:12;18.70;99.90
37974;DHT22;23796;51.458;7.000;2022-09-02T08:10:39;18.70;99.90
37974;DHT22;23796;51.458;7.000;2022-09-02T08:13:08;18.90;99.90
37974;DHT22;23796;51.458;7.000;2022-09-02T08:15:38;19.20;99.90
37974;DHT22;23796;51.458;7.000;2022-09-02T08:18:06;19.40;99.90
37974;DHT22;23796;51.458;7.000;2022-09-02T08:20:32;19.50;99.90
37974;DHT22;23796;51.458;7.000;2022-09-02T08:22:57;19.60;99.90
37974;DHT22;23796;51.458;7.000;2022-09-02T08:25:26;19.60;99.90
37974;DHT22;23796;51.458;7.000;2022-09-02T08:27:54;19.50;99.90
37974;DHT22;23796;51.458;7.000;2022-09-02T08:30:20;19.30;99.90
37974;DHT22;23796;51.458;7.000;2022-09-02T08:32:48;19.40;99.90
37974;DHT22;23796;51.458;7.000;2022-09-02T08:35:17;19.50;99.90
37974;DHT22;23796;51.458;7.000;2022-09-02T08:37:45;19.80;99.90
37974;DHT22;23796;51.458;7.000;2022-09-02T08:40:22;20.10;99.90
37974;DHT22;23796;51.458;7.000;2022-09-02T08:42:55;20.40;99.90
37974;DHT22;23796;51.458;7.000;2022-09-02T08:45:35;20.40;99.90
37974;DHT22;23796;51.458;7.000;2022-09-02T08:50:51;20.40;99.90
37974;DHT22;23796;51.458;7.000;2022-09-02T08:55:56;20.60;99.90
37974;DHT22;23796;51.458;7.000;2022-09-02T08:58:38;20.60;99.90
37974;DHT22;23796;51.458;7.000;2022-09-02T09:06:37;20.60;99.90
37974;DHT22;23796;51.458;7.000;2022-09-02T09:09:09;20.80;99.90
37974;DHT22;23796;51.458;7.000;2022-09-02T09:11:51;21.00;99.90
37974;DHT22;23796;51.458;7.000;2022-09-02T09:14:41;21.20;99.90
37974;DHT22;23796;51.458;7.000;2022-09-02T09:20:06;21.60;99.90
37974;DHT22;23796;51.458;7.000;2022-09-02T09:22:36;21.70;99.90
37974;DHT22;23796;51.458;7.000;2022-09-02T09:25:15;21.70;99.90
37974;DHT22;23796;51.458;7.000;2022-09-02T09:27:42;21.90;99.90
37974;DHT22;23796;51.458;7.000;2022-09-02T09:30:11;22.00;99.90
37974;DHT22;23796;51.458;7.000;2022-09-02T09:32:47;22.10;99.90
37974;DHT22;23796;51.458;7.000;2022-09-02T09:35:15;22.30;99.90
37974;DHT22;23796;51.458;7.000;2022-09-02T09:37:51;22.50;99.90
37974;DHT22;23796;51.458;7.000;2022-09-02T09:42:48;22.30;99.90
37974;DHT22;23796;51.458;7.000;2022-09-02T09:48:17;22.60;99.90
37974;DHT22;23796;51.458;7.000;2022-09-02T09:51:11;22.80;99.90
37974;DHT22;23796;51.458;7.000;2022-09-02T09:53:38;23.00;99.90
37974;DHT22;23796;51.458;7.000;2022-09-02T09:56:04;23.20;99.90
37974;DHT22;23796;51.458;7.000;2022-09-02T10:06:34;23.10;99.90
37974;DHT22;23796;51.458;7.000;2022-09-02T10:09:04;23.10;99.90
37974;DHT22;23796;51.458;7.000;2022-09-02T10:11:35;23.20;99.90
37974;DHT22;23796;51.458;7.000;2022-09-02T10:14:02;23.30;99.90
37974;DHT22;23796;51.458;7.000;2022-09-02T10:24:57;23.60;99.90
37974;DHT22;23796;51.458;7.000;2022-09-02T10:27:48;23.80;99.90
37974;DHT22;23796;51.458;7.000;2022-09-02T10:30:20;23.90;99.80
37974;DHT22;23796;51.458;7.000;2022-09-02T10:33:05;24.20;99.50
37974;DHT22;23796;51.458;7.000;2022-09-02T10:35:49;24.30;98.60
37974;DHT22;23796;51.458;7.000;2022-09-02T10:46:07;24.90;97.50
37974;DHT22;23796;51.458;7.000;2022-09-02T10:51:53;25.00;96.00
37974;DHT22;23796;51.458;7.000;2022-09-02T11:02:40;24.70;94.70
37974;DHT22;23796;51.458;7.000;2022-09-02T11:05:20;24.70;94.80
37974;DHT22;23796;51.458;7.000;2022-09-02T11:07:49;24.90;95.20
37974;DHT22;23796;51.458;7.000;2022-09-02T11:10:30;25.00;95.00
37974;DHT22;23796;51.458;7.000;2022-09-02T11:15:46;25.30;93.80
37974;DHT22;23796;51.458;7.000;2022-09-02T11:18:31;25.30;92.70
37974;DHT22;23796;51.458;7.000;2022-09-02T11:24:05;25.70;90.60
37974;DHT22;23796;51.458;7.000;2022-09-02T11:26:45;25.80;90.50
37974;DHT22;23796;51.458;7.000;2022-09-02T11:29:26;25.90;87.70
37974;DHT22;23796;51.458;7.000;2022-09-02T11:35:13;26.10;86.00
37974;DHT22;23796;51.458;7.000;2022-09-02T11:37:51;26.20;84.50
37974;DHT22;23796;51.458;7.000;2022-09-02T11:51:00;26.50;80.40
37974;DHT22;23796;51.458;7.000;2022-09-02T11:53:34;26.50;79.80
37974;DHT22;23796;51.458;7.000;2022-09-02T11:58:39;26.30;79.90
37974;DHT22;23796;51.458;7.000;2022-09-02T12:01:26;26.30;79.90
37974;DHT22;23796;51.458;7.000;2022-09-02T12:04:17;26.20;79.90
37974;DHT22;23796;51.458;7.000;2022-09-02T12:23:05;25.90;75.70
37974;DHT22;23796;51.458;7.000;2022-09-02T12:25:43;25.60;76.40
37974;DHT22;23796;51.458;7.000;2022-09-02T12:33:45;25.90;76.10
37974;DHT22;23796;51.458;7.000;2022-09-02T12:50:31;25.60;75.40
37974;DHT22;23796;51.458;7.000;2022-09-02T12:55:33;25.50;75.90
37974;DHT22;23796;51.458;7.000;2022-09-02T12:58:11;25.40;75.50
37974;DHT22;23796;51.458;7.000;2022-09-02T13:03:32;25.50;74.60
37974;DHT22;23796;51.458;7.000;2022-09-02T13:14:52;26.00;74.90
37974;DHT22;23796;51.458;7.000;2022-09-02T13:28:35;26.50;73.70
37974;DHT22;23796;51.458;7.000;2022-09-02T13:31:24;26.40;73.70
37974;DHT22;23796;51.458;7.000;2022-09-02T13:34:00;26.50;73.90
37974;DHT22;23796;51.458;7.000;2022-09-02T13:36:34;26.50;73.20
37974;DHT22;23796;51.458;7.000;2022-09-02T13:39:18;26.50;73.00
37974;DHT22;23796;51.458;7.000;2022-09-02T13:41:51;26.40;73.10
37974;DHT22;23796;51.458;7.000;2022-09-02T13:44:26;26.10;72.50
37974;DHT22;23796;51.458;7.000;2022-09-02T13:47:03;25.90;73.30
37974;DHT22;23796;51.458;7.000;2022-09-02T13:49:34;25.80;72.90
37974;DHT22;23796;51.458;7.000;2022-09-02T13:52:04;25.70;72.50
37974;DHT22;23796;51.458;7.000;2022-09-02T13:54:34;25.80;73.10
37974;DHT22;23796;51.458;7.000;2022-09-02T13:57:05;25.80;72.90
37974;DHT22;23796;51.458;7.000;2022-09-02T13:59:54;25.90;73.10
37974;DHT22;23796;51.458;7.000;2022-09-02T14:02:31;26.10;72.90
37974;DHT22;23796;51.458;7.000;2022-09-02T14:07:35;26.80;72.20
37974;DHT22;23796;51.458;7.000;2022-09-02T14:10:04;27.00;72.20
37974;DHT22;23796;51.458;7.000;2022-09-02T14:12:32;27.10;71.60
37974;DHT22;23796;51.458;7.000;2022-09-02T14:15:02;27.30;71.30
37974;DHT22;23796;51.458;7.000;2022-09-02T14:17:28;27.40;70.70
37974;DHT22;23796;51.458;7.000;2022-09-02T14:22:50;27.60;69.80
37974;DHT22;23796;51.458;7.000;2022-09-02T14:25:16;27.60;70.10
37974;DHT22;23796;51.458;7.000;2022-09-02T14:27:53;27.50;69.60
37974;DHT22;23796;51.458;7.000;2022-09-02T14:30:34;27.40;69.70
37974;DHT22;23796;51.458;7.000;2022-09-02T14:33:37;27.60;70.00
37974;DHT22;23796;51.458;7.000;2022-09-02T14:36:04;27.70;69.20
37974;DHT22;23796;51.458;7.000;2022-09-02T14:38:52;27.70;69.20
37974;DHT22;23796;51.458;7.000;2022-09-02T14:41:26;27.50;69.10
37974;DHT22;23796;51.458;7.000;2022-09-02T14:44:27;27.30;69.40
37974;DHT22;23796;51.458;7.000;2022-09-02T14:46:48;27.00;68.90
37974;DHT22;23796;51.458;7.000;2022-09-02T14:51:51;26.40;69.90
37974;DHT22;23796;51.458;7.000;2022-09-02T14:54:40;26.40;70.00
37974;DHT22;23796;51.458;7.000;2022-09-02T14:59:47;26.30;71.20
37974;DHT22;23796;51.458;7.000;2022-09-02T15:04:49;26.30;70.80
37974;DHT22;23796;51.458;7.000;2022-09-02T15:07:17;26.30;70.80
37974;DHT22;23796;51.458;7.000;2022-09-02T15:09:43;26.30;70.10
37974;DHT22;23796;51.458;7.000;2022-09-02T15:12:13;26.20;70.20
37974;DHT22;23796;51.458;7.000;2022-09-02T15:14:40;26.10;69.80
37974;DHT22;23796;51.458;7.000;2022-09-02T15:17:07;26.00;70.70
37974;DHT22;23796;51.458;7.000;2022-09-02T15:19:36;26.00;70.70
37974;DHT22;23796;51.458;7.000;2022-09-02T15:22:04;26.00;70.70
37974;DHT22;23796;51.458;7.000;2022-09-02T15:24:30;25.90;70.80
37974;DHT22;23796;51.458;7.000;2022-09-02T15:26:58;25.80;70.60
37974;DHT22;23796;51.458;7.000;2022-09-02T15:29:23;25.80;71.20
37974;DHT22;23796;51.458;7.000;2022-09-02T15:31:52;25.80;70.80
37974;DHT22;23796;51.458;7.000;2022-09-02T15:34:20;25.80;70.90
37974;DHT22;23796;51.458;7.000;2022-09-02T15:36:46;25.70;70.80
37974;DHT22;23796;51.458;7.000;2022-09-02T15:39:14;25.70;70.40
37974;DHT22;23796;51.458;7.000;2022-09-02T15:41:42;25.60;70.50
37974;DHT22;23796;51.458;7.000;2022-09-02T15:44:10;25.70;70.50
37974;DHT22;23796;51.458;7.000;2022-09-02T15:46:36;25.80;70.60
37974;DHT22;23796;51.458;7.000;2022-09-02T15:49:06;25.80;71.20
37974;DHT22;23796;51.458;7.000;2022-09-02T15:51:36;25.80;70.90
37974;DHT22;23796;51.458;7.000;2022-09-02T15:54:06;25.70;70.10
37974;DHT22;23796;51.458;7.000;2022-09-02T15:56:37;25.70;70.60
37974;DHT22;23796;51.458;7.000;2022-09-02T15:59:05;25.60;70.50
37974;DHT22;23796;51.458;7.000;2022-09-02T16:01:38;25.50;70.40
37974;DHT22;23796;51.458;7.000;2022-09-02T16:04:06;25.40;70.40
37974;DHT22;23796;51.458;7.000;2022-09-02T16:06:34;25.30;70.50
37974;DHT22;23796;51.458;7.000;2022-09-02T16:09:06;25.30;70.60
37974;DHT22;23796;51.458;7.000;2022-09-02T16:11:43;25.30;70.60
37974;DHT22;23796;51.458;7.000;2022-09-02T16:14:09;25.30;70.30
37974;DHT22;23796;51.458;7.000;2022-09-02T16:16:38;25.40;70.40
37974;DHT22;23796;51.458;7.000;2022-09-02T16:19:05;25.40;70.40
37974;DHT22;23796;51.458;7.000;2022-09-02T16:21:32;25.30;70.10
37974;DHT22;23796;51.458;7.000;2022-09-02T16:24:00;25.20;70.30
37974;DHT22;23796;51.458;7.000;2022-09-02T16:26:32;25.10;70.40
37974;DHT22;23796;51.458;7.000;2022-09-02T16:29:04;25.10;70.60
37974;DHT22;23796;51.458;7.000;2022-09-02T16:31:31;25.10;70.70
37974;DHT22;23796;51.458;7.000;2022-09-02T16:34:00;25.10;70.80
37974;DHT22;23796;51.458;7.000;2022-09-02T16:36:27;25.10;70.80
37974;DHT22;23796;51.458;7.000;2022-09-02T16:38:53;25.10;70.90
37974;DHT22;23796;51.458;7.000;2022-09-02T16:43:59;25.10;71.10
37974;DHT22;23796;51.458;7.000;2022-09-02T16:46:29;25.20;70.70
37974;DHT22;23796;51.458;7.000;2022-09-02T16:48:55;25.20;70.90
37974;DHT22;23796;51.458;7.000;2022-09-02T16:51:24;25.20;70.90
37974;DHT22;23796;51.458;7.000;2022-09-02T16:53:57;25.20;70.70
37974;DHT22;23796;51.458;7.000;2022-09-02T16:56:24;25.10;70.90
37974;DHT22;23796;51.458;7.000;2022-09-02T16:58:55;25.00;71.20
37974;DHT22;23796;51.458;7.000;2022-09-02T17:01:21;25.00;71.40
37974;DHT22;23796;51.458;7.000;2022-09-02T17:03:49;24.90;72.10
37974;DHT22;23796;51.458;7.000;2022-09-02T17:06:17;25.00;71.50
37974;DHT22;23796;51.458;7.000;2022-09-02T17:08:43;25.10;71.60
37974;DHT22;23796;51.458;7.000;2022-09-02T17:13:50;25.10;71.10
37974;DHT22;23796;51.458;7.000;2022-09-02T17:16:20;25.00;71.60
37974;DHT22;23796;51.458;7.000;2022-09-02T17:18:46;24.90;71.60
37974;DHT22;23796;51.458;7.000;2022-09-02T17:23:52;24.70;71.80
37974;DHT22;23796;51.458;7.000;2022-09-02T17:26:23;24.60;71.80
37974;DHT22;23796;51.458;7.000;2022-09-02T17:28:52;24.50;71.60
37974;DHT22;23796;51.458;7.000;2022-09-02T17:33:53;24.30;71.90
37974;DHT22;23796;51.458;7.000;2022-09-02T17:36:20;24.30;72.10
37974;DHT22;23796;51.458;7.000;2022-09-02T17:38:53;24.30;72.10
37974;DHT22;23796;51.458;7.000;2022-09-02T17:41:19;24.20;72.10
37974;DHT22;23796;51.458;7.000;2022-09-02T17:44:03;24.20;72.30
37974;DHT22;23796;51.458;7.000;2022-09-02T17:46:31;24.10;72.20
37974;DHT22;23796;51.458;7.000;2022-09-02T17:48:59;24.00;72.20
37974;DHT22;23796;51.458;7.000;2022-09-02T17:51:24;23.90;72.30
37974;DHT22;23796;51.458;7.000;2022-09-02T17:53:50;23.90;72.60
37974;DHT22;23796;51.458;7.000;2022-09-02T18:05:16;23.60;73.20
37974;DHT22;23796;51.458;7.000;2022-09-02T18:07:27;23.40;73.30
37974;DHT22;23796;51.458;7.000;2022-09-02T18:09:58;23.30;73.50
37974;DHT22;23796;51.458;7.000;2022-09-02T18:12:24;23.30;73.60
37974;DHT22;23796;51.458;7.000;2022-09-02T18:14:57;23.20;73.80
37974;DHT22;23796;51.458;7.000;2022-09-02T18:17:33;23.10;73.90
37974;DHT22;23796;51.458;7.000;2022-09-02T18:25:49;22.90;74.30
37974;DHT22;23796;51.458;7.000;2022-09-02T18:31:09;22.80;74.80
37974;DHT22;23796;51.458;7.000;2022-09-02T18:36:15;22.60;74.90
37974;DHT22;23796;51.458;7.000;2022-09-02T18:47:06;22.30;75.60
37974;DHT22;23796;51.458;7.000;2022-09-02T18:49:35;22.30;75.80
37974;DHT22;23796;51.458;7.000;2022-09-02T18:52:07;22.20;75.70
37974;DHT22;23796;51.458;7.000;2022-09-02T18:54:53;22.20;75.80
37974;DHT22;23796;51.458;7.000;2022-09-02T18:57:20;22.10;75.90
37974;DHT22;23796;51.458;7.000;2022-09-02T18:59:59;22.10;76.10
37974;DHT22;23796;51.458;7.000;2022-09-02T19:02:45;22.00;76.10
37974;DHT22;23796;51.458;7.000;2022-09-02T19:05:18;22.00;76.20
37974;DHT22;23796;51.458;7.000;2022-09-02T19:07:50;21.90;76.30
37974;DHT22;23796;51.458;7.000;2022-09-02T19:10:36;21.90;76.60